Time;durP1;ratioP1;P1;durP2;ratioP2;P2;SDS_P1;SDS_P2;PMS_P1;PMS_P2;Temp;Humidity;BMP_temperature;BMP_pressure;BME280_temperature;BME280_humidity;BME280_pressure;Samples;Min_cycle;Max_cycle;Signal;HPM_P1;HPM_P2
2022/03/08 00:00:12;;;;;;;14.10;6.03;;;;;;;-3.62;86.20;102253.38;4884216;29;20292;-93
2022/03/08 00:02:38;;;;;;;11.73;6.03;;;;;;;-3.58;85.63;102260.84;4883053;29;20025;-93
2022/03/08 00:05:03;;;;;;;10.77;5.93;;;;;;;-3.48;85.78;102257.47;4883865;29;20040;-91
2022/03/08 00:07:28;;;;;;;12.13;6.03;;;;;;;-3.46;85.48;102248.50;4885283;29;20131;-92
2022/03/08 00:09:55;;;;;;;12.80;5.78;;;;;;;-3.46;85.45;102252.91;4884892;29;20033;-93
2022/03/08 00:12:21;;;;;;;11.27;6.07;;;;;;;-3.37;85.50;102249.50;4882998;29;20032;-93
2022/03/08 00:14:46;;;;;;;17.87;6.30;;;;;;;-3.29;84.77;102248.84;4882960;29;20361;-93
2022/03/08 00:17:12;;;;;;;13.95;5.93;;;;;;;-3.24;84.68;102251.94;4882447;29;20021;-93
2022/03/08 00:19:40;;;;;;;12.03;6.00;;;;;;;-3.25;84.19;102224.03;4884183;29;20507;-93
2022/03/08 00:22:05;;;;;;;9.45;5.22;;;;;;;-3.17;83.40;102241.75;4874676;29;20056;-92
2022/03/08 00:24:30;;;;;;;13.63;5.70;;;;;;;-3.15;83.23;102243.25;4885032;29;20497;-93
2022/03/08 00:26:55;;;;;;;8.63;5.30;;;;;;;-3.12;82.40;102250.06;4884122;29;20029;-93
2022/03/08 00:29:21;;;;;;;12.33;5.33;;;;;;;-3.16;82.76;102243.41;4884156;29;20035;-93
2022/03/08 00:31:46;;;;;;;9.50;5.63;;;;;;;-3.26;82.67;102230.25;4884448;29;20025;-93
2022/03/08 00:34:11;;;;;;;10.43;5.10;;;;;;;-3.10;82.33;102243.69;4883334;29;20167;-93
2022/03/08 00:36:37;;;;;;;8.23;5.10;;;;;;;-3.08;81.80;102238.31;4884306;29;20044;-93
2022/03/08 00:39:03;;;;;;;9.33;5.20;;;;;;;-2.98;81.96;102236.56;4884047;29;20033;-93
2022/03/08 00:41:29;;;;;;;9.30;4.78;;;;;;;-2.94;81.64;102234.50;4883500;29;20088;-92
2022/03/08 00:43:54;;;;;;;10.57;5.00;;;;;;;-2.85;80.42;102230.25;4884284;29;20073;-92
2022/03/08 00:46:19;;;;;;;9.77;4.70;;;;;;;-2.73;80.24;102231.78;4882638;29;20392;-92
2022/03/08 00:48:45;;;;;;;8.33;5.03;;;;;;;-2.64;79.60;102243.25;4882759;29;20025;-92
2022/03/08 00:51:11;;;;;;;7.32;4.20;;;;;;;-2.70;79.05;102231.50;4883892;29;20053;-91
2022/03/08 00:53:37;;;;;;;7.35;4.43;;;;;;;-2.70;79.55;102241.19;4882974;29;20108;-91
2022/03/08 00:56:03;;;;;;;10.57;4.33;;;;;;;-2.72;79.00;102241.31;4882811;29;20092;-92
2022/03/08 00:58:28;;;;;;;9.17;4.23;;;;;;;-2.75;79.03;102236.38;4866192;29;20281;-93
2022/03/08 01:00:54;;;;;;;6.07;4.35;;;;;;;-2.76;79.05;102239.94;4883076;29;20395;-92
2022/03/08 01:03:19;;;;;;;8.43;4.27;;;;;;;-2.73;79.22;102242.28;4882573;29;20115;-93
2022/03/08 01:05:44;;;;;;;9.90;4.57;;;;;;;-2.68;78.81;102247.16;4883087;29;20408;-93
2022/03/08 01:08:10;;;;;;;8.50;4.07;;;;;;;-2.70;78.67;102239.38;4883788;29;20365;-92
2022/03/08 01:10:36;;;;;;;9.35;4.20;;;;;;;-2.70;78.67;102239.38;4880506;29;20451;-94
2022/03/08 01:13:03;;;;;;;7.03;3.97;;;;;;;-2.70;78.36;102238.56;4879023;29;20578;-93
2022/03/08 01:15:28;;;;;;;7.10;4.15;;;;;;;-2.66;78.17;102229.47;4882136;29;20029;-93
2022/03/08 01:17:55;;;;;;;9.70;4.93;;;;;;;-2.61;78.41;102233.34;4882265;29;20037;-92
2022/03/08 01:20:21;;;;;;;7.28;4.45;;;;;;;-2.56;77.75;102234.75;4884711;29;20029;-92
2022/03/08 01:22:47;;;;;;;7.27;3.13;;;;;;;-2.53;77.43;102223.94;4883364;29;20093;-92
2022/03/08 01:25:15;;;;;;;6.00;3.45;;;;;;;-2.43;77.46;102214.28;4879835;29;20029;-92
2022/03/08 01:27:41;;;;;;;5.75;4.07;;;;;;;-2.37;77.14;102218.97;4861822;29;20061;-91
2022/03/08 01:30:09;;;;;;;9.32;4.20;;;;;;;-2.42;76.48;102223.84;4876148;29;20453;-92
2022/03/08 01:32:34;;;;;;;7.03;4.10;;;;;;;-2.44;76.93;102220.50;4881108;29;20025;-93
2022/03/08 01:35:00;;;;;;;10.23;4.47;;;;;;;-2.46;77.38;102210.13;4878832;29;20040;-92
2022/03/08 01:37:25;;;;;;;8.37;3.90;;;;;;;-2.44;76.82;102215.25;4878187;29;20029;-92
2022/03/08 01:39:50;;;;;;;11.10;4.47;;;;;;;-2.45;76.85;102211.78;4878186;29;20032;-92
2022/03/08 01:42:20;;;;;;;4.67;3.60;;;;;;;-2.49;76.77;102212.22;4880058;29;20040;-92
2022/03/08 01:44:46;;;;;;;6.57;4.07;;;;;;;-2.49;76.73;102199.94;4884723;29;20060;-93
2022/03/08 01:47:24;;;;;;;8.75;4.43;;;;;;;-2.49;76.60;102191.22;4885319;29;20619;-93
2022/03/08 01:49:50;;;;;;;7.82;4.10;;;;;;;-2.51;76.60;102186.09;4881815;29;20048;-92
2022/03/08 01:52:18;;;;;;;8.55;4.35;;;;;;;-2.50;76.63;102184.31;4880945;29;20479;-93
2022/03/08 01:54:53;;;;;;;8.40;4.13;;;;;;;-2.45;76.62;102193.41;4880241;29;20140;-93
2022/03/08 01:57:19;;;;;;;8.18;4.68;;;;;;;-2.44;76.42;102187.19;4878002;29;20048;-91
2022/03/08 01:59:45;;;;;;;9.43;4.47;;;;;;;-2.53;76.61;102181.94;4878983;29;20052;-92
2022/03/08 02:02:11;;;;;;;9.47;4.70;;;;;;;-2.46;76.30;102177.81;4881489;29;20337;-92
2022/03/08 02:04:37;;;;;;;9.90;4.60;;;;;;;-2.49;76.22;102175.47;4877775;29;20036;-92
2022/03/08 02:07:04;;;;;;;8.73;4.68;;;;;;;-2.47;76.42;102170.91;4877391;29;20043;-92
2022/03/08 02:09:30;;;;;;;10.10;4.18;;;;;;;-2.40;76.04;102176.44;4878605;29;20094;-92
2022/03/08 02:11:55;;;;;;;5.45;3.90;;;;;;;-2.36;75.32;102175.19;4879559;29;20040;-93
2022/03/08 02:14:20;;;;;;;7.77;4.23;;;;;;;-2.33;75.43;102170.47;4879465;29;20033;-93
2022/03/08 02:16:46;;;;;;;8.23;4.57;;;;;;;-2.39;76.16;102162.34;4883281;29;20044;-92
2022/03/08 02:19:20;;;;;;;6.05;4.50;;;;;;;-2.40;75.44;102164.16;4881185;29;20025;-92
2022/03/08 02:21:46;;;;;;;9.17;4.80;;;;;;;-2.44;76.22;102160.94;4887187;29;20037;-93
2022/03/08 02:24:11;;;;;;;6.30;4.60;;;;;;;-2.59;76.48;102144.81;4890151;29;20092;-92
2022/03/08 02:26:37;;;;;;;9.10;4.40;;;;;;;-2.54;76.45;102165.38;4890874;29;20077;-92
2022/03/08 02:29:06;;;;;;;10.17;4.50;;;;;;;-2.56;76.63;102163.88;4889308;29;20033;-93
2022/03/08 02:31:32;;;;;;;5.97;4.28;;;;;;;-2.60;76.32;102151.00;4887268;29;20542;-93
2022/03/08 02:34:00;;;;;;;8.38;4.57;;;;;;;-2.60;76.66;102156.25;4885088;29;20029;-93
2022/03/08 02:36:25;;;;;;;8.55;4.07;;;;;;;-2.70;76.73;102142.28;4885905;29;20036;-91
2022/03/08 02:38:51;;;;;;;8.10;4.00;;;;;;;-2.69;76.63;102141.31;4889298;29;20635;-92
2022/03/08 02:41:16;;;;;;;6.57;4.40;;;;;;;-2.72;76.62;102146.03;4889366;29;20312;-92
2022/03/08 02:43:42;;;;;;;6.63;3.90;;;;;;;-2.75;76.98;102142.72;4890940;29;20069;-91
2022/03/08 02:46:08;;;;;;;7.78;4.55;;;;;;;-2.75;77.01;102144.53;4888156;29;20025;-89
2022/03/08 02:48:34;;;;;;;8.27;4.27;;;;;;;-2.86;77.02;102136.75;4886526;29;20048;-89
2022/03/08 02:50:59;;;;;;;7.03;4.20;;;;;;;-2.86;78.14;102139.38;4870053;29;20407;-90
2022/03/08 02:53:25;;;;;;;9.33;5.07;;;;;;;-2.81;77.55;102142.44;4896832;29;20028;-90
2022/03/08 02:55:52;;;;;;;7.97;4.97;;;;;;;-2.84;77.85;102135.66;4887712;29;20807;-90
2022/03/08 02:58:17;;;;;;;8.77;5.10;;;;;;;-2.80;77.59;102128.34;4873531;29;20028;-90
2022/03/08 03:00:43;;;;;;;6.90;4.50;;;;;;;-2.78;77.12;102121.16;4903029;29;20277;-90
2022/03/08 03:03:09;;;;;;;6.60;4.47;;;;;;;-2.70;76.75;102116.03;4900973;29;20101;-88
2022/03/08 03:05:35;;;;;;;8.65;4.95;;;;;;;-2.71;76.75;102117.00;4891090;29;20061;-88
2022/03/08 03:08:00;;;;;;;7.32;4.60;;;;;;;-2.71;76.51;102117.00;4889070;29;20029;-89
2022/03/08 03:10:26;;;;;;;8.97;4.53;;;;;;;-2.72;76.39;102115.34;4886075;29;20028;-89
2022/03/08 03:12:54;;;;;;;8.47;4.57;;;;;;;-2.70;76.47;102110.00;4885821;29;20365;-89
2022/03/08 03:15:20;;;;;;;8.27;4.15;;;;;;;-2.68;76.50;102101.00;4884206;29;20025;-89
2022/03/08 03:17:46;;;;;;;6.03;4.43;;;;;;;-2.67;76.37;102102.66;4877651;29;20097;-89
2022/03/08 03:20:14;;;;;;;9.07;4.97;;;;;;;-2.73;77.04;102092.69;4877928;29;20064;-89
2022/03/08 03:22:39;;;;;;;7.65;3.58;;;;;;;-2.75;76.64;102084.16;4889156;29;20036;-88
2022/03/08 03:25:06;;;;;;;7.47;5.17;;;;;;;-2.71;77.14;102082.91;4895051;29;20060;-88
2022/03/08 03:27:31;;;;;;;6.40;4.28;;;;;;;-2.70;76.42;102079.31;4911207;29;20028;-88
2022/03/08 03:29:56;;;;;;;7.60;4.80;;;;;;;-2.71;76.77;102080.28;4923661;29;20012;-88
2022/03/08 03:32:23;;;;;;;9.47;5.40;;;;;;;-2.65;76.79;102081.53;4924223;29;20021;-88
2022/03/08 03:34:48;;;;;;;8.60;5.18;;;;;;;-2.64;76.73;102080.53;4923691;29;20052;-89
2022/03/08 03:37:14;;;;;;;7.18;4.90;;;;;;;-2.67;76.47;102086.09;4922284;29;20019;-89
2022/03/08 03:39:41;;;;;;;7.43;4.30;;;;;;;-2.82;76.50;102075.19;4897479;29;20021;-89
2022/03/08 03:42:06;;;;;;;6.75;3.80;;;;;;;-2.83;76.77;102081.38;4884492;29;20064;-89
2022/03/08 03:44:33;;;;;;;7.67;4.53;;;;;;;-2.84;77.03;102085.81;4882161;29;20040;-89
2022/03/08 03:47:00;;;;;;;7.07;4.10;;;;;;;-2.84;77.06;102087.59;4865294;29;20032;-89
2022/03/08 03:49:25;;;;;;;7.68;4.65;;;;;;;-2.85;77.07;102084.16;4883019;29;20029;-89
2022/03/08 03:51:51;;;;;;;9.43;5.03;;;;;;;-2.95;77.63;102076.28;4866675;29;20036;-89
2022/03/08 03:54:21;;;;;;;7.63;4.65;;;;;;;-2.87;77.63;102090.50;4883340;29;20404;-89
2022/03/08 03:56:46;;;;;;;8.65;4.30;;;;;;;-2.87;77.39;102088.72;4880653;29;20037;-89
2022/03/08 03:59:12;;;;;;;8.93;4.97;;;;;;;-2.90;77.08;102089.00;4880577;29;20394;-90
2022/03/08 04:01:38;;;;;;;7.68;4.93;;;;;;;-2.99;77.93;102082.78;4881903;29;20029;-89
2022/03/08 04:04:03;;;;;;;11.77;4.47;;;;;;;-2.97;77.81;102088.72;4884156;29;20059;-89
2022/03/08 04:06:29;;;;;;;7.90;4.80;;;;;;;-3.00;77.78;102083.72;4884027;29;20080;-89
2022/03/08 04:08:54;;;;;;;7.73;4.70;;;;;;;-2.99;78.39;102095.03;4883871;29;20033;-90
2022/03/08 04:11:20;;;;;;;8.50;5.20;;;;;;;-3.01;78.37;102078.63;4882032;29;20181;-89
2022/03/08 04:13:45;;;;;;;7.50;4.60;;;;;;;-2.98;78.04;102073.09;4881618;29;20017;-90
2022/03/08 04:16:11;;;;;;;8.70;5.20;;;;;;;-2.95;78.69;102076.28;4881745;29;20033;-89
2022/03/08 04:18:37;;;;;;;6.72;4.05;;;;;;;-3.00;78.30;102068.00;4882956;29;20033;-89
2022/03/08 04:21:02;;;;;;;9.32;5.22;;;;;;;-2.99;79.03;102074.91;4882700;29;20051;-89
2022/03/08 04:23:27;;;;;;;9.60;5.33;;;;;;;-2.96;78.83;102069.38;4882249;29;20093;-88
2022/03/08 04:25:53;;;;;;;9.30;4.77;;;;;;;-2.86;78.30;102073.78;4883267;29;20028;-89
2022/03/08 04:28:19;;;;;;;8.48;4.80;;;;;;;-2.84;78.10;102070.09;4886867;29;20044;-89
2022/03/08 04:30:44;;;;;;;6.87;4.80;;;;;;;-2.84;77.87;102069.25;4886709;29;20080;-89
2022/03/08 04:33:10;;;;;;;8.00;4.83;;;;;;;-2.87;78.62;102059.84;4885819;29;20100;-90
2022/03/08 04:35:35;;;;;;;10.15;5.32;;;;;;;-2.82;78.24;102070.75;4865790;29;20037;-89
2022/03/08 04:38:00;;;;;;;6.83;4.40;;;;;;;-2.80;77.31;102071.44;4884122;29;20043;-89
2022/03/08 04:40:26;;;;;;;7.67;5.33;;;;;;;-2.91;78.01;102064.53;4886061;29;20132;-91
2022/03/08 04:42:51;;;;;;;5.40;3.83;;;;;;;-2.89;77.74;102067.03;4884134;29;20085;-90
2022/03/08 04:45:17;;;;;;;8.63;4.90;;;;;;;-2.91;78.58;102064.53;4883399;29;20025;-90
2022/03/08 04:47:43;;;;;;;8.98;4.63;;;;;;;-2.90;77.87;102070.63;4887478;29;20033;-88
2022/03/08 04:50:14;;;;;;;8.48;4.60;;;;;;;-2.97;78.04;102065.09;4898821;29;20024;-89
2022/03/08 04:52:39;;;;;;;10.00;5.40;;;;;;;-3.02;78.71;102061.25;4883725;29;20029;-90
2022/03/08 04:55:05;;;;;;;8.35;4.68;;;;;;;-3.02;78.48;102067.28;4882619;29;20037;-90
2022/03/08 04:57:31;;;;;;;9.15;5.40;;;;;;;-3.03;78.83;102070.88;4886157;29;20029;-90
2022/03/08 04:59:58;;;;;;;11.43;5.33;;;;;;;-3.05;78.61;102067.56;4900741;29;20029;-91
2022/03/08 05:02:24;;;;;;;10.23;5.47;;;;;;;-3.06;78.70;102065.91;4883298;29;20104;-91
2022/03/08 05:04:49;;;;;;;11.88;5.57;;;;;;;-3.08;78.31;102065.22;4884495;29;20051;-93
2022/03/08 05:07:15;;;;;;;9.53;5.50;;;;;;;-3.12;79.09;102063.84;4883709;29;20025;-90
2022/03/08 05:09:40;;;;;;;8.67;5.00;;;;;;;-3.24;79.35;102058.72;4881965;29;20073;-92
2022/03/08 05:12:13;;;;;;;7.63;4.77;;;;;;;-3.36;79.53;102059.81;4883493;29;20047;-90
2022/03/08 05:14:41;;;;;;;9.63;5.20;;;;;;;-3.39;79.55;102054.81;4857637;29;20301;-89
2022/03/08 05:17:09;;;;;;;11.35;5.55;;;;;;;-3.41;78.97;102051.50;4882694;29;20037;-90
2022/03/08 05:19:45;;;;;;;10.55;5.55;;;;;;;-3.37;79.96;102058.97;4878381;29;20134;-90
2022/03/08 05:22:23;;;;;;;12.05;5.40;;;;;;;-3.41;79.66;102041.88;4877009;29;20033;-89
2022/03/08 05:24:57;;;;;;;8.82;4.68;;;;;;;-3.40;79.70;102046.16;4877046;29;20032;-91
2022/03/08 05:27:24;;;;;;;9.77;5.10;;;;;;;-3.46;79.95;102040.59;4877309;29;20033;-89
2022/03/08 05:29:52;;;;;;;12.20;4.93;;;;;;;-3.48;80.62;102030.25;4880695;29;20084;-92
2022/03/08 05:32:18;;;;;;;7.05;4.95;;;;;;;-3.48;79.99;102039.94;4866167;29;20032;-91
2022/03/08 05:34:49;;;;;;;8.55;5.32;;;;;;;-3.47;79.99;102036.34;4883088;29;20043;-92
2022/03/08 05:37:15;;;;;;;9.27;5.17;;;;;;;-3.45;80.19;102042.25;4883256;29;20033;-92
2022/03/08 05:39:40;;;;;;;8.93;5.77;;;;;;;-3.54;80.89;102036.88;4892448;29;20296;-91
2022/03/08 05:42:06;;;;;;;9.83;5.67;;;;;;;-3.43;81.32;102053.44;4885336;29;20476;-92
2022/03/08 05:44:31;;;;;;;9.90;5.40;;;;;;;-3.33;81.04;102053.44;4880697;29;20040;-90
2022/03/08 05:46:57;;;;;;;8.40;4.07;;;;;;;-3.38;80.63;102048.63;4883496;29;20048;-91
2022/03/08 05:49:23;;;;;;;9.50;5.57;;;;;;;-3.27;80.95;102058.97;4877850;29;20041;-90
2022/03/08 05:51:49;;;;;;;7.93;4.85;;;;;;;-3.24;80.55;102060.53;4882408;29;20123;-95
2022/03/08 05:54:14;;;;;;;8.95;5.85;;;;;;;-3.33;80.63;102041.19;4913009;23;20060;-93
2022/03/08 05:56:44;;;;;;;9.27;5.13;;;;;;;-3.40;80.37;102032.19;4888172;29;20048;-94
2022/03/08 06:00:01;;;;;;;8.85;5.43;;;;;;;-3.42;80.79;102034.13;4903116;29;20036;-94
2022/03/08 06:02:28;;;;;;;7.10;4.18;;;;;;;-3.37;80.65;102043.22;4894478;23;20736;-93
2022/03/08 06:04:53;;;;;;;12.60;5.10;;;;;;;-3.36;80.53;102026.53;4906575;29;20043;-94
2022/03/08 06:07:21;;;;;;;9.50;5.50;;;;;;;-3.29;80.55;102039.97;4913039;29;20032;-95
2022/03/08 06:10:24;;;;;;;8.85;5.88;;;;;;;-3.32;81.20;102040.22;4890739;29;20039;-96
2022/03/08 06:12:55;;;;;;;7.38;4.60;;;;;;;-3.22;79.99;102041.06;4819960;29;20589;-95
2022/03/08 06:15:27;;;;;;;9.00;5.38;;;;;;;-3.20;80.38;102044.38;4879752;29;20029;-96
2022/03/08 06:18:08;;;;;;;8.73;4.63;;;;;;;-3.28;79.81;102040.78;4894241;29;20053;-96
2022/03/08 06:20:42;;;;;;;9.63;6.00;;;;;;;-3.21;81.15;102042.72;4887073;29;20778;-91
2022/03/08 06:23:08;;;;;;;9.50;5.60;;;;;;;-3.07;80.63;102057.22;4882446;29;20110;-86
2022/03/08 06:25:33;;;;;;;9.53;5.30;;;;;;;-3.01;79.95;102052.41;4883945;29;20029;-85
2022/03/08 06:27:59;;;;;;;10.60;5.80;;;;;;;-2.97;80.28;102048.53;4881428;29;20321;-84
2022/03/08 06:30:25;;;;;;;14.48;6.43;;;;;;;-2.95;80.46;102052.69;4871191;29;20032;-85
2022/03/08 06:32:50;;;;;;;13.00;6.00;;;;;;;-2.85;79.88;102047.44;4882597;29;20033;-84
2022/03/08 06:35:17;;;;;;;14.40;5.47;;;;;;;-2.80;79.24;102039.13;4889092;29;20471;-84
2022/03/08 06:37:42;;;;;;;9.27;5.88;;;;;;;-2.76;79.30;102051.84;4892237;29;20036;-85
2022/03/08 06:40:08;;;;;;;12.27;5.90;;;;;;;-2.72;79.34;102052.38;4879208;29;20033;-83
2022/03/08 06:42:36;;;;;;;11.00;5.88;;;;;;;-2.70;79.24;102050.44;4878643;29;20056;-84
2022/03/08 06:45:03;;;;;;;10.85;5.70;;;;;;;-2.62;79.05;102060.25;4889755;29;20025;-85
2022/03/08 06:47:28;;;;;;;10.20;5.47;;;;;;;-2.55;78.37;102048.22;4887506;29;20037;-85
2022/03/08 06:49:54;;;;;;;8.87;5.07;;;;;;;-2.46;78.11;102051.81;4886784;29;20332;-85
2022/03/08 06:52:19;;;;;;;10.67;6.23;;;;;;;-2.39;77.89;102057.31;4890732;29;20507;-85
2022/03/08 06:54:45;;;;;;;12.70;5.63;;;;;;;-2.30;77.35;102057.28;4896234;29;20037;-84
2022/03/08 06:57:10;;;;;;;9.57;5.30;;;;;;;-2.22;76.91;102058.41;4885723;29;20437;-84
2022/03/08 06:59:35;;;;;;;9.33;6.73;;;;;;;-2.05;76.04;102060.28;4877729;29;20131;-84
2022/03/08 07:02:01;;;;;;;9.03;6.00;;;;;;;-1.94;75.99;102061.06;4876735;29;20504;-83
2022/03/08 07:04:26;;;;;;;6.67;4.70;;;;;;;-1.88;75.52;102063.94;4878092;29;20432;-84
2022/03/08 07:06:51;;;;;;;9.63;5.23;;;;;;;-1.83;75.39;102060.88;4877990;29;20036;-86
2022/03/08 07:09:16;;;;;;;11.33;4.57;;;;;;;-1.78;74.93;102058.63;4889499;29;20040;-86
2022/03/08 07:11:45;;;;;;;8.90;5.53;;;;;;;-1.66;74.47;102054.00;4887313;29;20063;-85
2022/03/08 07:14:15;;;;;;;7.90;4.90;;;;;;;-1.65;74.87;102063.56;4896855;29;20036;-84
2022/03/08 07:16:41;;;;;;;7.97;5.22;;;;;;;-1.55;74.04;102061.69;4891703;29;20089;-83
2022/03/08 07:19:06;;;;;;;10.88;6.22;;;;;;;-1.50;74.42;102053.38;4889747;29;20392;-84
2022/03/08 07:21:32;;;;;;;10.13;6.17;;;;;;;-1.42;73.67;102056.09;4890366;29;20029;-83
2022/03/08 07:23:57;;;;;;;7.38;5.25;;;;;;;-1.43;73.10;102058.88;4881403;29;20029;-87
2022/03/08 07:26:22;;;;;;;10.83;5.53;;;;;;;-1.28;72.72;102072.38;4886932;29;20052;-88
2022/03/08 07:28:48;;;;;;;10.10;4.97;;;;;;;-1.25;72.63;102070.25;4890533;29;20041;-88
2022/03/08 07:31:13;;;;;;;10.83;5.97;;;;;;;-1.16;72.03;102067.69;4885730;29;20033;-88
2022/03/08 07:33:38;;;;;;;7.83;5.73;;;;;;;-1.07;71.39;102059.72;4885948;29;20037;-88
2022/03/08 07:36:04;;;;;;;7.70;5.53;;;;;;;-1.00;71.16;102062.59;4885583;29;20385;-88
2022/03/08 07:38:29;;;;;;;10.50;6.27;;;;;;;-0.88;70.60;102057.09;4889727;29;20479;-89
2022/03/08 07:40:55;;;;;;;8.40;4.70;;;;;;;-0.77;69.89;102057.72;4892926;29;20089;-88
2022/03/08 07:43:20;;;;;;;8.48;5.05;;;;;;;-0.68;69.61;102065.66;4889265;29;20085;-88
2022/03/08 07:45:45;;;;;;;7.87;5.33;;;;;;;-0.57;69.25;102060.16;4885259;29;20037;-87
2022/03/08 07:48:11;;;;;;;7.43;5.17;;;;;;;-0.48;68.64;102061.88;4887382;29;20124;-88
2022/03/08 07:50:36;;;;;;;11.63;5.93;;;;;;;-0.39;67.43;102061.94;4900051;29;20472;-88
2022/03/08 07:53:03;;;;;;;8.60;5.93;;;;;;;-0.28;67.70;102059.03;4899017;29;20120;-88
2022/03/08 07:55:29;;;;;;;8.73;5.63;;;;;;;-0.17;67.12;102045.59;4903362;29;20284;-86
2022/03/08 07:57:55;;;;;;;10.48;6.15;;;;;;;0.01;66.12;102060.50;4891514;29;20480;-89
2022/03/08 08:00:20;;;;;;;7.75;4.75;;;;;;;-0.01;66.54;102052.75;4910873;29;20032;-91
2022/03/08 08:02:46;;;;;;;6.93;4.03;;;;;;;0.08;65.93;102066.00;4889250;29;20052;-86
2022/03/08 08:05:11;;;;;;;8.70;4.97;;;;;;;0.19;65.18;102064.88;4886381;29;20036;-86
2022/03/08 08:07:36;;;;;;;10.50;5.30;;;;;;;0.27;64.52;102067.53;4880994;29;20037;-85
2022/03/08 08:10:02;;;;;;;9.13;5.03;;;;;;;0.39;64.29;102071.53;4881263;29;20040;-85
2022/03/08 08:12:28;;;;;;;8.07;4.40;;;;;;;0.47;63.88;102054.09;4882149;29;20060;-85
2022/03/08 08:14:53;;;;;;;11.18;5.82;;;;;;;0.54;63.55;102063.84;4882092;29;20033;-85
2022/03/08 08:17:18;;;;;;;7.60;5.10;;;;;;;0.67;62.69;102062.56;4882046;29;20077;-84
2022/03/08 08:19:44;;;;;;;9.10;5.40;;;;;;;0.74;62.75;102074.13;4876880;29;20025;-85
2022/03/08 08:22:09;;;;;;;10.43;5.68;;;;;;;0.83;61.79;102062.59;4875903;29;20037;-84
2022/03/08 08:24:35;;;;;;;8.47;5.90;;;;;;;0.94;61.51;102063.28;4883972;29;20041;-83
2022/03/08 08:27:01;;;;;;;6.10;4.10;;;;;;;0.96;61.64;102066.59;4880709;29;20100;-85
2022/03/08 08:29:26;;;;;;;8.67;4.93;;;;;;;1.06;60.61;102069.88;4875440;29;20302;-85
2022/03/08 08:31:51;;;;;;;7.83;5.00;;;;;;;1.23;59.99;102069.91;4876897;29;20037;-85
2022/03/08 08:34:17;;;;;;;10.33;5.33;;;;;;;1.34;59.53;102067.75;4877004;29;20048;-84
2022/03/08 08:36:46;;;;;;;9.35;4.90;;;;;;;1.37;59.31;102066.59;4877146;29;20076;-84
2022/03/08 08:39:12;;;;;;;6.67;5.23;;;;;;;1.47;58.37;102064.63;4877078;29;20033;-85
2022/03/08 08:41:37;;;;;;;8.03;5.67;;;;;;;1.62;57.91;102070.06;4878773;29;20305;-84
2022/03/08 08:44:02;;;;;;;7.37;4.47;;;;;;;1.70;57.49;102065.72;4878767;29;20085;-84
2022/03/08 08:46:28;;;;;;;10.83;5.40;;;;;;;1.74;57.60;102070.50;4875834;29;20104;-84
2022/03/08 08:48:53;;;;;;;11.10;5.47;;;;;;;1.84;57.14;102065.03;4871588;29;20550;-86
2022/03/08 08:51:18;;;;;;;6.35;4.43;;;;;;;1.89;56.60;102051.34;4870717;29;20036;-86
2022/03/08 08:53:46;;;;;;;7.30;3.37;;;;;;;1.95;55.91;102055.91;4871801;29;20048;-85
2022/03/08 08:56:12;;;;;;;5.70;4.27;;;;;;;1.97;56.38;102056.59;4870460;29;20044;-86
2022/03/08 08:58:43;;;;;;;6.30;4.83;;;;;;;2.06;55.75;102047.66;4871781;29;20297;-87
2022/03/08 09:01:17;;;;;;;6.55;4.38;;;;;;;1.98;55.90;102039.72;4891591;29;20484;-86
2022/03/08 09:03:42;;;;;;;7.20;4.93;;;;;;;2.07;55.69;102032.59;4885722;29;20032;-88
2022/03/08 09:06:41;;;;;;;;;;;;;;;;;;;;;
2022/03/08 09:09:19;;;;;;;7.23;4.90;;;;;;;2.22;55.60;102040.63;4861163;29;20072;-87
2022/03/08 09:11:57;;;;;;;8.47;4.90;;;;;;;2.31;55.04;102044.88;4881170;29;20293;-90
2022/03/08 09:15:19;;;;;;;5.95;4.00;;;;;;;2.49;54.99;102064.97;4888041;29;20032;-89
2022/03/08 09:26:38;;;;;;;13.68;4.15;;;;;;;2.76;53.52;102031.06;4920664;23;20048;-86
2022/03/08 09:29:09;;;;;;;6.90;4.78;;;;;;;2.92;52.17;102032.81;4906532;29;20044;-87
2022/03/08 09:32:02;;;;;;;6.00;4.05;;;;;;;3.07;52.82;102032.84;4910513;29;20461;-86
2022/03/08 09:34:34;;;;;;;6.43;3.88;;;;;;;3.08;51.63;102030.03;4894052;29;20507;-86
2022/03/08 09:36:59;;;;;;;6.23;3.80;;;;;;;3.11;51.12;102007.66;4854642;29;20446;-88
2022/03/08 09:39:24;;;;;;;8.23;4.87;;;;;;;3.23;50.10;102005.41;4891816;29;20360;-87
2022/03/08 09:41:55;;;;;;;8.70;4.17;;;;;;;3.29;50.04;102009.94;4905820;23;20071;-88
2022/03/08 09:58:05;;;;;;;5.65;4.30;;;;;;;3.77;48.62;102002.53;4894650;29;20112;-87
2022/03/08 10:00:37;;;;;;;12.60;5.05;;;;;;;3.84;49.13;102004.41;4896699;29;20060;-90
2022/03/08 10:06:18;;;;;;;4.85;3.70;;;;;;;3.93;48.21;101998.03;5469184;23;20052;-85
2022/03/08 10:08:44;;;;;;;6.35;4.10;;;;;;;4.01;47.76;101974.06;4902020;29;20092;-85
2022/03/08 10:11:14;;;;;;;11.10;4.50;;;;;;;4.11;47.72;101997.63;4906407;29;20036;-90
2022/03/08 10:13:47;;;;;;;6.07;4.20;;;;;;;4.23;47.05;101990.84;4895964;29;20031;-89
2022/03/08 10:16:26;;;;;;;6.35;3.95;;;;;;;4.31;47.32;101979.31;4895069;29;20041;-88
2022/03/08 10:19:02;;;;;;;8.70;4.50;;;;;;;4.39;46.58;101986.31;4890985;29;20423;-88
2022/03/08 10:21:34;;;;;;;5.15;4.03;;;;;;;4.45;46.37;101988.22;4895097;29;20152;-87
2022/03/08 10:24:05;;;;;;;8.90;3.27;;;;;;;4.48;46.58;101997.63;4876832;29;20049;-87
2022/03/08 10:26:41;;;;;;;7.73;4.13;;;;;;;4.52;46.41;101986.44;4893129;29;21044;-88
2022/03/08 10:29:07;;;;;;;5.68;4.03;;;;;;;4.58;45.69;101986.72;4884849;29;20044;-89
2022/03/08 10:31:32;;;;;;;8.75;4.15;;;;;;;4.63;46.13;101984.31;4897901;29;20025;-90
2022/03/08 10:34:04;;;;;;;6.13;3.73;;;;;;;4.73;46.08;101984.81;4894600;29;20740;-88
2022/03/08 10:36:31;;;;;;;4.70;4.07;;;;;;;4.87;45.78;101980.47;4893092;29;20425;-88
2022/03/08 10:39:14;;;;;;;9.90;4.05;;;;;;;4.93;45.74;101970.91;4894777;29;20492;-87
2022/03/08 10:41:51;;;;;;;5.82;3.70;;;;;;;4.95;46.12;101975.00;4877956;29;20063;-87
2022/03/08 10:44:31;;;;;;;4.38;3.45;;;;;;;5.00;45.06;101979.75;4897991;29;20031;-87
2022/03/08 10:47:01;;;;;;;7.90;4.32;;;;;;;5.01;44.44;101970.78;4897734;29;20037;-87
2022/03/08 10:49:26;;;;;;;7.50;3.45;;;;;;;5.05;44.92;101968.53;4892575;29;20088;-88
2022/03/08 10:52:04;;;;;;;6.03;4.10;;;;;;;5.15;44.49;101966.34;4893152;29;20021;-88
2022/03/08 10:54:31;;;;;;;5.90;4.40;;;;;;;5.29;44.31;101968.13;4895737;29;20108;-91
2022/03/08 10:56:57;;;;;;;7.43;3.88;;;;;;;5.38;44.17;101970.59;4898763;29;20159;-90
2022/03/08 10:59:23;;;;;;;5.07;3.83;;;;;;;5.45;44.25;101960.84;4898470;29;20037;-90
2022/03/08 11:01:48;;;;;;;7.57;3.77;;;;;;;5.51;43.89;101973.34;4899001;29;20322;-89
2022/03/08 11:04:24;;;;;;;7.47;4.30;;;;;;;5.57;43.36;101964.59;4898623;29;20025;-88
2022/03/08 11:06:53;;;;;;;6.83;3.43;;;;;;;5.67;43.62;101963.41;4898963;29;20040;-89
2022/03/08 11:09:19;;;;;;;9.33;4.40;;;;;;;5.72;43.76;101956.50;4899314;29;21168;-89
2022/03/08 11:11:45;;;;;;;6.88;4.07;;;;;;;5.84;43.59;101964.72;4897984;29;20059;-88
2022/03/08 11:14:11;;;;;;;9.23;4.00;;;;;;;5.96;43.09;101970.28;4897832;29;20032;-88
2022/03/08 11:16:38;;;;;;;7.00;3.33;;;;;;;6.04;42.24;101958.69;4901821;29;20025;-88
2022/03/08 11:19:07;;;;;;;7.10;3.70;;;;;;;6.07;42.75;101958.28;4898996;29;20031;-89
2022/03/08 11:21:34;;;;;;;5.18;4.20;;;;;;;6.15;43.00;101949.28;4902720;29;20109;-88
2022/03/08 11:24:02;;;;;;;9.15;5.38;;;;;;;6.29;42.06;101945.66;4883751;29;20127;-88
2022/03/08 11:26:29;;;;;;;7.47;4.40;;;;;;;6.33;41.50;101954.06;4899172;29;20025;-89
2022/03/08 11:28:55;;;;;;;9.50;3.67;;;;;;;6.37;41.62;101952.66;4898825;29;20293;-89
2022/03/08 11:31:28;;;;;;;7.80;3.70;;;;;;;6.46;41.78;101945.28;4904397;29;20036;-90
2022/03/08 11:34:24;;;;;;;7.25;4.43;;;;;;;6.54;41.70;101941.63;4890181;29;20048;-87
2022/03/08 11:37:01;;;;;;;6.43;3.90;;;;;;;6.59;42.13;101944.47;4899712;29;20033;-93
2022/03/08 11:39:28;;;;;;;6.28;3.80;;;;;;;6.65;41.35;101939.16;4899586;29;20029;-93
2022/03/08 11:41:56;;;;;;;5.68;3.92;;;;;;;6.76;40.43;101935.06;4883358;29;20043;-92
2022/03/08 11:44:33;;;;;;;7.85;3.90;;;;;;;6.84;41.13;101930.56;4894402;29;20043;-92
2022/03/08 11:47:04;;;;;;;6.00;3.28;;;;;;;6.94;40.85;101925.63;4897046;29;20117;-91
2022/03/08 11:49:39;;;;;;;4.20;3.78;;;;;;;7.11;40.13;101918.84;4882659;29;20436;-91
2022/03/08 11:52:15;;;;;;;8.43;4.10;;;;;;;7.08;39.77;101911.28;4899215;29;20040;-91
2022/03/08 11:54:40;;;;;;;14.27;3.70;;;;;;;7.12;39.84;101907.13;4904580;29;20289;-92